Time;durP1;ratioP1;P1;durP2;ratioP2;P2;SDS_P1;SDS_P2;PMS_P1;PMS_P2;Temp;Humidity;BMP_temperature;BMP_pressure;BME280_temperature;BME280_humidity;BME280_pressure;Samples;Min_cycle;Max_cycle;Signal;HPM_P1;HPM_P2
2021/09/04 00:00:17;;;;;;;;;30.75;24.00;;;;;27.18;42.24;101466.44;5051091;28;46702;-73
2021/09/04 00:02:42;;;;;;;;;34.25;25.75;;;;;27.21;42.10;101467.06;5050980;28;45317;-76
2021/09/04 00:05:08;;;;;;;;;25.25;25.00;;;;;27.16;41.95;101468.50;5055320;28;45466;-73
2021/09/04 00:07:33;;;;;;;;;26.75;23.25;;;;;27.17;42.42;101469.31;5058634;28;45608;-74
2021/09/04 00:09:59;;;;;;;;;24.25;22.00;;;;;27.19;42.18;101475.28;5056797;28;48235;-75
2021/09/04 00:12:26;;;;;;;;;22.50;20.75;;;;;27.18;42.26;101471.78;5056287;28;45318;-75
2021/09/04 00:14:53;;;;;;;;;22.75;22.75;;;;;27.15;42.08;101464.19;5057703;28;45573;-74
2021/09/04 00:17:18;;;;;;;;;24.50;21.75;;;;;27.08;41.94;101447.28;5055307;28;45542;-73
2021/09/04 00:19:44;;;;;;;;;28.25;24.50;;;;;27.15;42.24;101460.69;5056803;28;46507;-73
2021/09/04 00:22:09;;;;;;;;;27.00;24.25;;;;;27.16;42.10;101465.00;5056255;28;45474;-75
2021/09/04 00:24:35;;;;;;;;;27.50;24.75;;;;;27.07;41.86;101451.78;5056510;27;45455;-74
2021/09/04 00:27:00;;;;;;;;;25.25;22.25;;;;;27.10;42.08;101452.41;5059407;27;45467;-74
2021/09/04 00:29:26;;;;;;;;;27.00;24.00;;;;;27.14;42.56;101465.19;5055194;28;46673;-74
2021/09/04 00:31:52;;;;;;;;;25.25;21.75;;;;;27.09;42.57;101453.44;5058373;28;45622;-74
2021/09/04 00:34:17;;;;;;;;;32.50;24.25;;;;;27.09;42.07;101450.78;5055123;28;45488;-73
2021/09/04 00:36:42;;;;;;;;;25.25;21.75;;;;;27.09;42.33;101445.44;5054801;28;45393;-74
2021/09/04 00:39:08;;;;;;;;;25.50;24.75;;;;;27.07;42.18;101449.13;5053797;28;46207;-73
2021/09/04 00:41:36;;;;;;;;;25.75;25.75;;;;;27.08;42.34;101444.59;5057097;28;45606;-73
2021/09/04 00:44:04;;;;;;;;;29.00;23.75;;;;;27.11;42.41;101446.06;5055721;28;45455;-74
2021/09/04 00:46:29;;;;;;;;;23.00;23.00;;;;;27.04;42.51;101433.50;5053015;28;45528;-72
2021/09/04 00:48:55;;;;;;;;;26.50;24.50;;;;;27.02;42.48;101440.88;5048412;28;45541;-73
2021/09/04 00:51:20;;;;;;;;;22.25;20.25;;;;;27.05;42.21;101439.66;5057908;28;45348;-73
2021/09/04 00:53:46;;;;;;;;;29.00;26.75;;;;;27.04;42.56;101430.00;5057322;28;45496;-73
2021/09/04 00:56:13;;;;;;;;;25.00;23.50;;;;;27.09;42.56;101443.56;5052541;28;45423;-73
2021/09/04 00:58:39;;;;;;;;;27.25;25.75;;;;;27.09;42.28;101429.41;5053980;28;45635;-71
2021/09/04 01:01:05;;;;;;;;;25.00;22.50;;;;;27.03;42.15;101421.19;5050292;28;45442;-71
2021/09/04 01:03:30;;;;;;;;;29.50;25.25;;;;;27.02;42.25;101421.38;5056795;28;45532;-72
2021/09/04 01:05:55;;;;;;;;;27.25;23.75;;;;;27.05;42.14;101424.47;5056351;28;45408;-73
2021/09/04 01:08:21;;;;;;;;;25.75;24.75;;;;;27.09;42.13;101421.41;5054209;28;47683;-72
2021/09/04 01:10:51;;;;;;;;;22.25;20.75;;;;;27.07;42.45;101410.91;5051786;28;45479;-72
2021/09/04 01:13:17;;;;;;;;;22.25;20.50;;;;;27.15;42.13;101429.47;5044513;28;45439;-71
2021/09/04 01:15:43;;;;;;;;;23.00;21.00;;;;;27.14;42.35;101414.44;5040274;28;45560;-72
2021/09/04 01:18:09;;;;;;;;;20.75;18.25;;;;;27.17;42.33;101406.03;5040033;28;45472;-71
2021/09/04 01:20:34;;;;;;;;;22.75;22.25;;;;;27.18;41.95;101412.19;5044634;28;45452;-71
2021/09/04 01:23:00;;;;;;;;;22.25;21.00;;;;;27.22;42.21;101417.97;5044339;28;48720;-72
2021/09/04 01:25:29;;;;;;;;;23.00;19.50;;;;;27.09;41.70;101395.50;5044558;28;45515;-71
2021/09/04 01:27:56;;;;;;;;;21.00;20.00;;;;;27.25;41.98;101412.22;5040283;28;46439;-71
2021/09/04 01:30:22;;;;;;;;;18.75;16.75;;;;;27.22;42.01;101397.41;5053611;28;45285;-71
2021/09/04 01:32:47;;;;;;;;;22.75;19.00;;;;;27.21;41.94;101395.78;5043371;28;45309;-71
2021/09/04 01:35:19;;;;;;;;;18.75;18.00;;;;;27.28;41.92;101409.13;5044103;28;45413;-71
2021/09/04 01:37:45;;;;;;;;;17.25;16.50;;;;;27.25;42.04;101402.34;5044244;28;46278;-72
2021/09/04 01:40:12;;;;;;;;;18.00;15.50;;;;;27.30;42.23;101409.75;5044254;28;45873;-71
2021/09/04 01:42:39;;;;;;;;;20.50;19.25;;;;;27.23;41.82;101395.56;5040056;28;45353;-71
2021/09/04 01:45:05;;;;;;;;;18.75;16.00;;;;;27.29;41.58;101408.94;5052035;28;45611;-71
2021/09/04 01:47:31;;;;;;;;;16.75;15.00;;;;;27.25;42.25;101405.03;5044563;28;47288;-72
2021/09/04 01:49:56;;;;;;;;;21.25;17.00;;;;;27.28;41.82;101406.47;5041399;28;45405;-72
2021/09/04 01:52:22;;;;;;;;;18.25;17.00;;;;;27.29;41.49;101408.94;5041627;28;45229;-71
2021/09/04 01:54:51;;;;;;;;;19.25;17.00;;;;;27.33;41.89;101403.19;5038364;28;45285;-71
2021/09/04 01:57:17;;;;;;;;;17.25;14.75;;;;;27.33;41.94;101408.53;5037923;28;48230;-71
2021/09/04 01:59:43;;;;;;;;;15.75;13.00;;;;;27.28;41.51;101399.28;5038084;28;45353;-72
2021/09/04 02:02:09;;;;;;;;;16.75;15.75;;;;;27.27;41.13;101391.47;5038564;28;45356;-71
2021/09/04 02:04:34;;;;;;;;;18.75;16.50;;;;;27.20;41.51;101377.25;5038473;28;45597;-71
2021/09/04 02:07:01;;;;;;;;;15.00;15.00;;;;;27.31;41.24;101400.72;5038411;28;45321;-71
2021/09/04 02:09:26;;;;;;;;;14.25;13.50;;;;;27.35;41.71;101401.94;5036762;28;45364;-71
2021/09/04 02:11:52;;;;;;;;;16.25;16.25;;;;;27.35;41.45;101391.25;5038059;28;45477;-71
2021/09/04 02:14:17;;;;;;;;;14.25;14.25;;;;;27.32;41.53;101390.88;5038602;28;45533;-71
2021/09/04 02:16:42;;;;;;;;;14.50;13.25;;;;;27.30;41.79;101385.72;5038248;28;45439;-71
2021/09/04 02:19:08;;;;;;;;;16.25;15.75;;;;;27.33;41.33;101389.81;5038144;28;45504;-71
2021/09/04 02:21:33;;;;;;;;;15.75;14.75;;;;;27.28;41.73;101379.75;5037675;28;45278;-71
2021/09/04 02:23:59;;;;;;;;;14.25;14.25;;;;;27.34;41.63;101391.47;5036955;28;45373;-71
2021/09/04 02:26:24;;;;;;;;;14.25;13.50;;;;;27.32;41.71;101394.38;5038278;28;45630;-71
2021/09/04 02:28:50;;;;;;;;;14.00;14.00;;;;;27.28;41.75;101391.25;5040661;28;45392;-72
2021/09/04 02:31:18;;;;;;;;;16.50;14.75;;;;;27.36;40.93;101395.59;5040130;28;45401;-71
2021/09/04 02:33:43;;;;;;;;;17.50;16.00;;;;;27.36;41.55;101398.25;5036798;28;45491;-71
2021/09/04 02:36:08;;;;;;;;;16.00;14.50;;;;;27.34;41.72;101391.47;5038369;28;47453;-72
2021/09/04 02:38:34;;;;;;;;;19.00;16.50;;;;;27.34;41.05;101394.97;5040806;28;45489;-71
2021/09/04 02:40:59;;;;;;;;;14.00;13.50;;;;;27.34;41.65;101394.97;5040876;28;45405;-71
2021/09/04 02:43:24;;;;;;;;;19.25;16.50;;;;;27.32;41.28;101394.38;5040928;28;45521;-72
2021/09/04 02:45:49;;;;;;;;;15.00;14.00;;;;;27.36;41.55;101400.94;5037627;28;45509;-71
2021/09/04 02:48:15;;;;;;;;;13.25;11.75;;;;;27.36;41.14;101398.25;5038353;28;45384;-72
2021/09/04 02:50:40;;;;;;;;;14.00;13.50;;;;;27.34;41.00;101391.47;5040882;28;45525;-71
2021/09/04 02:53:07;;;;;;;;;16.75;12.50;;;;;27.28;41.10;101385.91;5040674;28;45429;-71
2021/09/04 02:55:33;;;;;;;;;14.75;14.75;;;;;27.33;41.36;101387.16;5040661;28;45508;-71
2021/09/04 02:57:59;;;;;;;;;16.50;12.75;;;;;27.33;40.94;101389.81;5038539;28;45481;-72
2021/09/04 03:00:24;;;;;;;;;13.75;13.25;;;;;27.37;41.72;101401.75;5038244;28;45358;-72
2021/09/04 03:02:50;;;;;;;;;12.50;12.25;;;;;27.35;41.50;101401.94;5038197;28;45586;-71
2021/09/04 03:05:15;;;;;;;;;13.00;13.00;;;;;27.21;41.55;101374.41;5040332;28;45602;-72
2021/09/04 03:07:41;;;;;;;;;12.25;12.25;;;;;27.36;41.37;101400.09;5040821;28;45369;-72
2021/09/04 03:10:07;;;;;;;;;13.00;13.00;;;;;27.36;41.54;101406.28;5039768;28;45342;-71
2021/09/04 03:12:32;;;;;;;;;14.75;14.50;;;;;27.31;41.56;101398.06;5037074;28;45404;-71
2021/09/04 03:14:57;;;;;;;;;17.75;16.00;;;;;27.26;41.47;101387.16;5039297;28;46160;-72
2021/09/04 03:17:23;;;;;;;;;14.00;12.75;;;;;27.26;41.53;101382.63;5039946;28;45358;-71
2021/09/04 03:19:48;;;;;;;;;13.25;12.25;;;;;27.27;41.06;101381.59;5040539;28;45728;-72
2021/09/04 03:22:13;;;;;;;;;14.50;14.00;;;;;27.26;41.77;101382.63;5040429;28;45219;-71
2021/09/04 03:24:40;;;;;;;;;15.50;14.25;;;;;27.33;41.48;101395.16;5036107;28;46617;-72
2021/09/04 03:27:06;;;;;;;;;12.50;10.25;;;;;27.29;41.55;101392.09;5039302;28;45471;-72
2021/09/04 03:29:31;;;;;;;;;16.00;15.00;;;;;27.32;41.01;101389.03;5039960;28;45338;-72
2021/09/04 03:31:57;;;;;;;;;15.50;15.00;;;;;27.32;41.20;101386.34;5039829;28;45404;-72
2021/09/04 03:34:22;;;;;;;;;14.25;11.75;;;;;27.31;41.29;101383.88;5039994;28;45576;-72
2021/09/04 03:36:47;;;;;;;;;12.25;12.25;;;;;27.30;41.17;101383.03;5036752;28;45474;-71
2021/09/04 03:39:13;;;;;;;;;16.50;16.50;;;;;27.32;40.99;101386.34;5038600;28;45397;-71
2021/09/04 03:41:38;;;;;;;;;14.25;14.25;;;;;27.30;41.21;101380.38;5041443;28;45380;-72
2021/09/04 03:44:03;;;;;;;;;15.25;13.25;;;;;27.32;40.95;101386.34;5043509;28;45556;-71
2021/09/04 03:46:29;;;;;;;;;15.00;15.00;;;;;27.36;40.99;101392.09;5043461;28;45393;-71
2021/09/04 03:48:59;;;;;;;;;15.00;13.50;;;;;27.33;41.50;101385.31;5041133;28;45509;-72
2021/09/04 03:51:25;;;;;;;;;12.75;12.00;;;;;27.28;40.91;101372.56;5041181;28;45355;-71
2021/09/04 03:53:50;;;;;;;;;13.00;12.50;;;;;27.29;41.05;101373.41;5042348;28;45493;-71
2021/09/04 03:56:15;;;;;;;;;16.50;13.50;;;;;27.31;41.33;101375.84;5043376;28;45487;-71
2021/09/04 03:58:41;;;;;;;;;15.25;13.75;;;;;27.18;41.03;101356.94;5043402;28;45452;-71
2021/09/04 04:01:06;;;;;;;;;13.50;12.00;;;;;27.27;41.12;101370.91;5042100;28;45419;-71
2021/09/04 04:03:31;;;;;;;;;14.00;14.00;;;;;27.35;40.93;101379.78;5039895;28;45794;-71
2021/09/04 04:05:57;;;;;;;;;13.25;13.25;;;;;27.17;41.54;101351.78;5042387;28;45335;-71
2021/09/04 04:08:22;;;;;;;;;13.25;13.25;;;;;27.32;41.48;101366.81;5043349;28;45389;-71
2021/09/04 04:10:47;;;;;;;;;15.00;15.00;;;;;27.29;41.08;101363.53;5043374;28;45396;-71
2021/09/04 04:13:13;;;;;;;;;12.50;11.50;;;;;27.37;41.32;101369.69;5043016;28;45526;-71
2021/09/04 04:15:38;;;;;;;;;10.00;10.00;;;;;27.31;41.40;101365.16;5038517;28;45375;-71
2021/09/04 04:18:03;;;;;;;;;14.75;13.25;;;;;27.33;41.53;101363.94;5042394;28;45532;-71
2021/09/04 04:20:28;;;;;;;;;14.00;12.25;;;;;27.25;41.08;101362.28;5043271;28;45463;-71
2021/09/04 04:22:54;;;;;;;;;13.25;13.00;;;;;27.32;41.51;101370.31;5041630;28;46593;-71
2021/09/04 04:25:19;;;;;;;;;13.00;13.00;;;;;27.27;41.53;101365.56;5043155;28;45464;-71
2021/09/04 04:27:44;;;;;;;;;13.00;11.00;;;;;27.29;41.10;101371.56;5039361;28;45585;-71
2021/09/04 04:30:10;;;;;;;;;13.25;13.25;;;;;27.31;41.38;101368.66;5041186;28;45285;-71
2021/09/04 04:32:36;;;;;;;;;15.50;13.75;;;;;27.30;41.54;101372.34;5042858;28;45601;-71
2021/09/04 04:35:02;;;;;;;;;11.25;11.25;;;;;27.30;41.14;101380.38;5042700;28;45534;-71
2021/09/04 04:37:27;;;;;;;;;14.75;14.25;;;;;27.26;41.12;101366.63;5042764;28;45338;-71
2021/09/04 04:39:52;;;;;;;;;16.25;14.00;;;;;27.32;41.65;101374.84;5039987;28;45401;-71
2021/09/04 04:42:18;;;;;;;;;11.75;11.50;;;;;27.32;41.15;101382.84;5040236;28;46631;-71
2021/09/04 04:44:43;;;;;;;;;14.50;14.50;;;;;27.31;41.29;101379.34;5042335;28;45394;-71
2021/09/04 04:47:09;;;;;;;;;12.25;12.25;;;;;27.28;41.55;101371.75;5042963;28;47708;-71
2021/09/04 04:49:34;;;;;;;;;14.25;14.25;;;;;27.29;41.11;101374.22;5042622;28;45504;-71
2021/09/04 04:51:59;;;;;;;;;11.75;11.75;;;;;27.23;41.33;101369.69;5040613;28;45326;-71
2021/09/04 04:54:26;;;;;;;;;14.25;13.00;;;;;27.31;41.09;101378.53;5039192;28;45308;-71
2021/09/04 04:56:52;;;;;;;;;12.50;12.50;;;;;27.26;40.95;101363.94;5041737;28;45361;-71
2021/09/04 04:59:17;;;;;;;;;15.75;13.50;;;;;27.34;41.01;101386.13;5041999;28;45314;-71
2021/09/04 05:01:42;;;;;;;;;13.00;13.00;;;;;27.30;41.30;101369.69;5042230;28;46433;-71
2021/09/04 05:04:08;;;;;;;;;13.00;11.25;;;;;27.33;41.48;101387.97;5041902;28;45589;-71
2021/09/04 05:06:33;;;;;;;;;16.50;14.75;;;;;27.26;41.47;101376.47;5039003;28;45346;-71
2021/09/04 05:08:58;;;;;;;;;13.25;13.00;;;;;27.28;40.90;101379.75;5041498;28;45424;-71
2021/09/04 05:11:24;;;;;;;;;13.75;13.75;;;;;27.20;41.07;101371.94;5042121;28;46342;-72
2021/09/04 05:13:49;;;;;;;;;13.25;13.00;;;;;27.29;41.07;101384.09;5041779;28;45447;-71
2021/09/04 05:16:15;;;;;;;;;13.00;13.00;;;;;27.28;41.23;101377.91;5042437;28;45553;-71
2021/09/04 05:18:41;;;;;;;;;16.00;16.00;;;;;27.27;41.08;101381.59;5037943;28;45476;-71
2021/09/04 05:21:07;;;;;;;;;14.25;13.00;;;;;27.28;40.86;101385.91;5052522;28;46469;-72
2021/09/04 05:23:32;;;;;;;;;14.25;11.00;;;;;27.16;41.43;101367.00;5042523;28;45388;-72
2021/09/04 05:25:58;;;;;;;;;16.25;14.50;;;;;27.34;41.27;101392.31;5040636;28;45460;-71
2021/09/04 05:28:23;;;;;;;;;12.75;11.75;;;;;27.34;41.06;101396.81;5041794;28;45333;-71
2021/09/04 05:30:48;;;;;;;;;12.75;12.75;;;;;27.27;41.41;101383.47;5038407;28;46391;-71
2021/09/04 05:33:14;;;;;;;;;13.00;13.00;;;;;27.31;41.18;101398.06;5040219;28;45437;-71
2021/09/04 05:35:39;;;;;;;;;13.25;12.00;;;;;27.32;41.41;101398.88;5041886;28;45380;-71
2021/09/04 05:38:04;;;;;;;;;11.50;11.50;;;;;27.32;41.22;101396.22;5041723;28;45314;-70
2021/09/04 05:40:30;;;;;;;;;11.50;11.00;;;;;27.28;40.95;101393.09;5041723;28;46457;-71
2021/09/04 05:42:55;;;;;;;;;13.75;13.75;;;;;27.22;41.55;101389.41;5039310;28;45421;-72
2021/09/04 05:45:21;;;;;;;;;11.25;11.25;;;;;27.28;41.46;101393.09;5039321;28;45341;-72
2021/09/04 05:47:46;;;;;;;;;12.50;12.50;;;;;27.32;41.63;101409.56;5041550;28;45475;-72
2021/09/04 05:50:12;;;;;;;;;13.00;11.25;;;;;27.32;40.99;101407.72;5041488;28;45346;-71
2021/09/04 05:52:37;;;;;;;;;14.50;12.75;;;;;27.29;41.14;101402.78;5041665;28;45354;-71
2021/09/04 05:55:03;;;;;;;;;13.75;13.00;;;;;27.32;41.59;101412.25;5040149;28;45385;-72
2021/09/04 05:57:29;;;;;;;;;13.25;13.00;;;;;27.30;41.60;101407.09;5038407;28;45349;-71
2021/09/04 05:59:54;;;;;;;;;15.25;13.75;;;;;27.28;40.95;101409.13;5040686;28;46514;-71
2021/09/04 06:02:19;;;;;;;;;12.00;11.75;;;;;27.26;41.64;101406.69;5041372;28;45277;-72
2021/09/04 06:04:45;;;;;;;;;13.00;13.00;;;;;27.23;41.51;101407.09;5041295;28;45398;-71
2021/09/04 06:07:10;;;;;;;;;13.75;13.75;;;;;27.25;41.20;101410.38;5041079;28;45365;-71
2021/09/04 06:09:35;;;;;;;;;13.50;11.25;;;;;27.14;41.30;101393.06;5037482;28;46331;-71
2021/09/04 06:12:01;;;;;;;;;12.50;12.50;;;;;27.11;41.47;101389.97;5039986;28;45380;-71
2021/09/04 06:14:26;;;;;;;;;12.00;11.50;;;;;27.26;41.05;101409.34;5041251;28;45584;-71
2021/09/04 06:16:51;;;;;;;;;12.25;12.25;;;;;27.29;41.29;101414.28;5041181;28;45518;-71
2021/09/04 06:19:17;;;;;;;;;12.50;12.50;;;;;27.27;41.20;101413.66;5041066;28;45527;-71
2021/09/04 06:21:42;;;;;;;;;14.25;14.00;;;;;27.30;41.25;101417.75;5037258;28;45385;-72
2021/09/04 06:24:08;;;;;;;;;13.75;13.00;;;;;27.27;41.23;101412.84;5040570;28;45376;-72
2021/09/04 06:26:33;;;;;;;;;13.75;12.75;;;;;27.31;41.37;101415.94;5040625;28;45632;-72
2021/09/04 06:28:58;;;;;;;;;11.50;11.25;;;;;27.31;41.44;101424.75;5040892;28;45537;-71
2021/09/04 06:31:24;;;;;;;;;15.50;13.25;;;;;27.31;41.29;101427.44;5040840;28;45354;-72
2021/09/04 06:33:49;;;;;;;;;11.50;11.00;;;;;27.33;41.63;101429.91;5037807;28;45603;-72
2021/09/04 06:36:14;;;;;;;;;9.75;9.75;;;;;27.27;40.83;101426.22;5039224;28;45312;-71
2021/09/04 06:38:40;;;;;;;;;11.50;11.25;;;;;27.32;41.04;101428.28;5040737;28;46420;-72
2021/09/04 06:41:05;;;;;;;;;12.75;12.75;;;;;27.26;40.73;101428.06;5040423;28;45307;-71
2021/09/04 06:43:31;;;;;;;;;12.25;12.25;;;;;27.31;41.40;101430.13;5040876;28;45348;-72
2021/09/04 06:45:56;;;;;;;;;12.50;12.50;;;;;27.30;41.28;101439.13;5038591;28;45302;-71
2021/09/04 06:48:21;;;;;;;;;12.00;12.00;;;;;27.24;41.38;101427.44;5038276;28;45420;-72
2021/09/04 06:50:47;;;;;;;;;12.00;11.00;;;;;27.24;41.29;101427.44;5040294;28;45424;-72
2021/09/04 06:53:12;;;;;;;;;13.25;11.75;;;;;27.32;41.41;101434.44;5040759;28;45845;-71
2021/09/04 06:55:37;;;;;;;;;13.50;11.50;;;;;27.29;41.00;101430.31;5040288;28;45556;-71
2021/09/04 06:58:03;;;;;;;;;10.00;10.00;;;;;27.20;41.05;101409.31;5039020;28;46442;-72
2021/09/04 07:00:28;;;;;;;;;13.75;13.00;;;;;27.31;41.20;101422.09;5038101;28;45564;-72
2021/09/04 07:02:53;;;;;;;;;13.25;13.25;;;;;27.28;41.12;101423.31;5039764;28;45353;-71
2021/09/04 07:05:19;;;;;;;;;14.50;11.50;;;;;27.33;41.22;101422.72;5040390;28;45476;-72
2021/09/04 07:07:45;;;;;;;;;13.50;13.50;;;;;27.24;41.48;101406.06;5040485;28;45390;-71
2021/09/04 07:10:11;;;;;;;;;11.25;10.25;;;;;27.28;40.80;101415.31;5039687;28;45441;-72
2021/09/04 07:12:36;;;;;;;;;12.25;12.00;;;;;27.23;41.21;101407.09;5036567;28;45336;-71
2021/09/04 07:15:02;;;;;;;;;12.25;12.00;;;;;27.31;41.15;101422.09;5039565;28;45381;-71
2021/09/04 07:17:27;;;;;;;;;11.50;11.50;;;;;27.29;40.93;101419.63;5042894;28;46294;-71
2021/09/04 07:19:53;;;;;;;;;13.00;13.00;;;;;27.31;41.30;101427.44;5043902;28;45547;-71
2021/09/04 07:22:18;;;;;;;;;11.25;11.25;;;;;27.28;41.16;101415.31;5044130;28;45920;-72
2021/09/04 07:24:43;;;;;;;;;11.00;11.00;;;;;27.27;41.31;101419.00;5039449;28;45473;-71
2021/09/04 07:27:09;;;;;;;;;12.75;11.75;;;;;27.24;41.57;101419.41;5042845;28;48441;-72
2021/09/04 07:29:34;;;;;;;;;13.00;13.00;;;;;27.25;40.89;101415.72;5043640;28;45522;-72
2021/09/04 07:32:00;;;;;;;;;11.00;10.50;;;;;27.22;41.39;101410.75;5044042;28;46142;-72
2021/09/04 07:34:25;;;;;;;;;13.50;13.50;;;;;27.26;41.53;101411.19;5043882;28;45546;-71
2021/09/04 07:36:50;;;;;;;;;11.50;11.50;;;;;27.25;41.14;101407.69;5040378;28;45429;-71
2021/09/04 07:39:16;;;;;;;;;9.25;9.25;;;;;27.26;41.34;101409.34;5041332;28;45289;-72
2021/09/04 07:41:41;;;;;;;;;13.00;12.50;;;;;27.25;40.78;101413.03;5044097;28;45545;-71
2021/09/04 07:44:07;;;;;;;;;14.00;13.25;;;;;27.22;41.61;101400.06;5043778;28;45427;-72
2021/09/04 07:46:32;;;;;;;;;14.25;11.75;;;;;27.29;41.24;101421.47;5043516;28;46363;-72
2021/09/04 07:48:57;;;;;;;;;15.00;14.00;;;;;27.22;41.13;101402.75;5041285;28;45332;-72
2021/09/04 07:51:23;;;;;;;;;10.25;9.25;;;;;27.26;40.79;101411.19;5041157;28;45297;-71
2021/09/04 07:53:48;;;;;;;;;15.75;13.25;;;;;27.23;40.70;101408.91;5042811;28;45451;-72
2021/09/04 07:56:13;;;;;;;;;12.25;11.25;;;;;27.28;41.50;101409.97;5043338;28;45390;-72
2021/09/04 07:58:39;;;;;;;;;15.25;13.00;;;;;27.28;41.17;101415.31;5043364;28;45297;-71
2021/09/04 08:01:04;;;;;;;;;11.50;10.50;;;;;27.15;41.46;101391.22;5042283;28;45468;-71
2021/09/04 08:03:30;;;;;;;;;12.50;12.50;;;;;27.31;41.10;101430.13;5040347;28;45223;-72
2021/09/04 08:05:55;;;;;;;;;14.50;13.50;;;;;27.30;41.49;101431.13;5042351;28;46468;-71
2021/09/04 08:08:20;;;;;;;;;13.25;12.25;;;;;27.28;40.86;101423.31;5043060;28;45401;-71
2021/09/04 08:10:47;;;;;;;;;11.25;11.00;;;;;27.32;40.88;101428.28;5043217;28;45804;-71
2021/09/04 08:13:13;;;;;;;;;11.25;11.25;;;;;27.29;41.05;101426.81;5043070;28;45535;-72
2021/09/04 08:15:39;;;;;;;;;12.00;12.00;;;;;27.18;40.94;101412.19;5038879;28;45330;-72
2021/09/04 08:18:05;;;;;;;;;11.75;9.25;;;;;27.16;41.13;101400.91;5042015;28;45302;-71
2021/09/04 08:20:30;;;;;;;;;14.00;13.50;;;;;27.33;41.44;101432.56;5043325;28;45373;-71
2021/09/04 08:22:56;;;;;;;;;11.00;10.00;;;;;27.14;40.67;101406.44;5042613;28;45583;-72
2021/09/04 08:25:21;;;;;;;;;14.00;13.50;;;;;27.29;41.34;101432.16;5043006;28;46357;-71
2021/09/04 08:27:47;;;;;;;;;13.25;12.25;;;;;27.28;41.48;101427.84;5039126;28;45480;-71
2021/09/04 08:30:13;;;;;;;;;12.00;12.00;;;;;27.27;41.01;101426.22;5041435;28;45341;-71
2021/09/04 08:32:38;;;;;;;;;11.75;11.75;;;;;27.24;41.41;101429.28;5040155;28;45286;-71
2021/09/04 08:35:05;;;;;;;;;13.50;12.25;;;;;27.26;41.47;101430.72;5038746;28;48100;-72
2021/09/04 08:37:30;;;;;;;;;12.00;11.00;;;;;27.25;40.98;101438.91;5039599;28;45657;-71
2021/09/04 08:39:56;;;;;;;;;14.25;14.25;;;;;27.26;41.27;101443.25;5040206;28;45443;-71
2021/09/04 08:42:21;;;;;;;;;14.25;13.00;;;;;27.29;40.78;101445.53;5037981;28;45465;-71
2021/09/04 08:44:46;;;;;;;;;13.00;11.50;;;;;27.15;41.59;101423.28;5039295;28;46530;-71
2021/09/04 08:47:12;;;;;;;;;12.00;12.00;;;;;27.24;41.54;101442.63;5039732;28;45389;-71
2021/09/04 08:49:39;;;;;;;;;12.00;12.00;;;;;27.25;41.57;101433.56;5039865;28;45516;-71
2021/09/04 08:52:05;;;;;;;;;12.00;12.00;;;;;27.20;41.36;101436.03;5038450;28;45374;-71
2021/09/04 08:54:31;;;;;;;;;12.50;12.50;;;;;27.31;41.35;101453.31;5038140;28;45857;-72
2021/09/04 08:56:58;;;;;;;;;13.25;11.75;;;;;27.26;41.63;101443.25;5053934;28;45468;-72
2021/09/04 08:59:23;;;;;;;;;13.75;12.00;;;;;27.23;41.46;101433.78;5042190;28;45372;-71
2021/09/04 09:01:50;;;;;;;;;13.50;12.00;;;;;27.28;41.25;101447.38;5042489;28;45270;-71
2021/09/04 09:04:20;;;;;;;;;12.00;10.75;;;;;27.25;40.98;101436.25;5042327;28;46209;-71
2021/09/04 09:06:46;;;;;;;;;11.50;11.50;;;;;27.28;41.04;101443.88;5037981;28;45575;-71
2021/09/04 09:09:25;;;;;;;;;12.25;12.00;;;;;27.26;40.85;101437.91;5040917;28;45334;-71
2021/09/04 09:11:56;;;;;;;;;12.25;11.00;;;;;27.30;41.03;101449.81;5039016;28;45519;-72
2021/09/04 09:14:24;;;;;;;;;11.00;8.25;;;;;27.30;41.51;101449.81;5039249;28;46249;-72
2021/09/04 09:16:51;;;;;;;;;12.50;12.50;;;;;27.28;41.19;101452.72;5039186;28;45489;-72
2021/09/04 09:19:19;;;;;;;;;11.50;10.25;;;;;27.28;41.27;101454.56;5038913;28;45450;-71
2021/09/04 09:21:44;;;;;;;;;12.50;10.00;;;;;27.25;41.20;101445.09;5039525;28;45429;-72
2021/09/04 09:24:15;;;;;;;;;12.00;12.00;;;;;27.32;40.88;101452.31;5036635;28;46272;-72
2021/09/04 09:27:00;;;;;;;;;13.25;11.25;;;;;27.31;41.08;101445.31;5041954;28;45507;-72
2021/09/04 09:29:32;;;;;;;;;12.75;12.00;;;;;27.33;41.09;101446.75;5041698;28;45460;-71
2021/09/04 09:32:08;;;;;;;;;11.00;10.75;;;;;27.26;40.88;101452.09;5041988;28;45517;-71
2021/09/04 09:34:43;;;;;;;;;10.00;9.50;;;;;27.32;41.41;101450.47;5041496;28;47737;-71
2021/09/04 09:37:10;;;;;;;;;14.75;13.00;;;;;27.30;41.47;101441.81;5041484;28;45424;-71
2021/09/04 09:39:40;;;;;;;;;10.75;10.75;;;;;27.33;40.79;101444.09;5037331;28;45447;-71
2021/09/04 09:42:07;;;;;;;;;10.00;10.00;;;;;27.33;41.27;101441.41;5041028;28;45423;-71
2021/09/04 09:44:35;;;;;;;;;13.75;12.50;;;;;27.33;41.35;101440.59;5041611;28;46538;-71
2021/09/04 09:47:05;;;;;;;;;12.00;11.00;;;;;27.34;41.47;101445.75;5041640;28;45539;-72
2021/09/04 09:49:36;;;;;;;;;11.75;10.25;;;;;27.34;41.54;101439.56;5041384;28;45535;-72
2021/09/04 09:52:05;;;;;;;;;25.25;24.50;;;;;27.30;42.17;101433.78;5051744;28;45437;-71
2021/09/04 09:54:32;;;;;;;;;24.75;20.00;;;;;27.29;42.16;101443.69;5057944;27;46217;-71
2021/09/04 09:57:00;;;;;;;;;21.25;21.25;;;;;27.18;42.77;101425.56;5055858;28;45436;-71
2021/09/04 09:59:28;;;;;;;;;25.25;22.50;;;;;27.18;42.98;101434.41;5055941;28;45443;-71
2021/09/04 10:02:07;;;;;;;;;26.00;21.75;;;;;27.20;42.78;101438.69;5054801;28;45551;-71
2021/09/04 10:04:35;;;;;;;;;22.25;20.75;;;;;27.12;43.28;101437.84;5051921;28;45487;-70
2021/09/04 10:07:08;;;;;;;;;21.25;20.25;;;;;27.12;43.62;101447.69;5058943;28;45469;-70
2021/09/04 10:09:36;;;;;;;;;19.00;18.50;;;;;27.07;43.63;101446.44;5054936;28;45601;-71
2021/09/04 10:12:02;;;;;;;;;24.00;19.75;;;;;27.03;43.53;101445.22;5050951;28;45525;-70
2021/09/04 10:14:27;;;;;;;;;25.00;23.25;;;;;27.06;43.45;101444.00;5054785;27;46664;-71
2021/09/04 10:16:57;;;;;;;;;26.00;21.75;;;;;26.99;44.18;101437.78;5057691;28;45477;-71
2021/09/04 10:19:26;;;;;;;;;22.25;20.50;;;;;27.06;43.94;101449.34;5034732;28;45382;-71
2021/09/04 10:22:06;;;;;;;;;23.25;19.25;;;;;27.05;44.13;101445.00;5052149;28;45357;-71
2021/09/04 10:25:12;;;;;;;;;21.50;21.50;;;;;27.04;44.28;101438.00;5054635;28;45495;-71
2021/09/04 10:27:42;;;;;;;;;22.25;18.25;;;;;27.08;44.23;101447.28;4991626;28;45439;-71
2021/09/04 10:30:33;;;;;;;;;23.50;21.00;;;;;27.09;44.31;101448.13;4995967;28;45447;-72
2021/09/04 10:33:14;;;;;;;;;20.00;20.00;;;;;27.09;44.30;101448.13;4992693;28;45482;-71
2021/09/04 10:35:48;;;;;;;;;22.75;20.00;;;;;27.10;44.59;101452.41;4993225;28;45707;-71
2021/09/04 10:38:19;;;;;;;;;23.00;20.75;;;;;27.12;44.34;101448.50;4991010;28;45586;-71
2021/09/04 10:40:45;;;;;;;;;19.25;17.00;;;;;27.13;44.81;101442.19;4993805;28;45437;-70
2021/09/04 10:43:13;;;;;;;;;18.25;18.25;;;;;27.14;44.82;101437.69;4991267;28;45373;-70
2021/09/04 10:45:38;;;;;;;;;20.25;18.50;;;;;27.14;44.50;101441.16;4993485;28;45639;-70
2021/09/04 10:48:18;;;;;;;;;21.75;19.75;;;;;27.15;44.72;101445.47;4994494;28;45468;-71
2021/09/04 10:51:03;;;;;;;;;21.00;20.75;;;;;27.16;44.82;101446.31;4988872;28;45436;-71
2021/09/04 10:53:46;;;;;;;;;23.00;18.75;;;;;27.07;44.87;101438.44;4988469;28;45302;-70
2021/09/04 10:56:25;;;;;;;;;22.25;21.75;;;;;27.11;44.57;101438.03;4990847;28;46229;-70
2021/09/04 10:58:52;;;;;;;;;20.25;19.50;;;;;27.14;44.34;101441.16;4990859;28;45450;-71
2021/09/04 11:01:19;;;;;;;;;20.50;18.50;;;;;27.15;44.17;101442.81;4987363;28;45422;-70
2021/09/04 11:03:54;;;;;;;;;23.75;22.25;;;;;27.16;44.74;101443.63;5040668;28;45543;-70
2021/09/04 11:06:20;;;;;;;;;25.00;23.25;;;;;27.15;44.60;101437.47;5054131;28;46646;-71